CXA8773 ZSFZ-ZGHA
Flight info
| Callsign | CXA8773 |
|---|---|
| Flight time | N/A |
| Altitude | 23600 |
| Route | QO H18 P646 H164 AVDIP H165 DALEP |
| Aircraft | B738/M-SDE2E3FGHIRWXY/LB1 |
Departure
| Time | 2026-04-15 14:47 |
|---|---|
| Airport | Fuzhou Changle International Airport (ZSFZ) |
Arrival
| Time | N/A |
|---|---|
| Airport | Changsha Huanghua International Airport (ZGHA) |
| Time | Latitude | Longitude | Altitude | Speed | Heading |
|---|---|---|---|---|---|
| 2026-04-15 14:37 | 25.92824 | 119.66467 | 22 ft | 1 kts | 142° |
| 2026-04-15 14:37 | 25.92828 | 119.66464 | 22 ft | 2 kts | 142° |
| 2026-04-15 14:37 | 25.92844 | 119.66451 | 23 ft | 3 kts | 143° |
| 2026-04-15 14:37 | 25.92860 | 119.66437 | 24 ft | 3 kts | 144° |
| 2026-04-15 14:38 | 25.92876 | 119.66424 | 24 ft | 3 kts | 146° |
| 2026-04-15 14:38 | 25.92893 | 119.66412 | 23 ft | 3 kts | 148° |
| 2026-04-15 14:38 | 25.92911 | 119.66400 | 22 ft | 3 kts | 152° |
| 2026-04-15 14:38 | 25.92929 | 119.66391 | 23 ft | 3 kts | 162° |
| 2026-04-15 14:39 | 25.92947 | 119.66387 | 24 ft | 3 kts | 191° |
| 2026-04-15 14:39 | 25.92955 | 119.66389 | 23 ft | 0 kts | 207° |
| 2026-04-15 14:41 | 25.92953 | 119.66388 | 23 ft | 2 kts | 207° |
| 2026-04-15 14:41 | 25.92929 | 119.66374 | 24 ft | 6 kts | 207° |
| 2026-04-15 14:41 | 25.92880 | 119.66346 | 22 ft | 10 kts | 207° |
| 2026-04-15 14:42 | 25.92809 | 119.66308 | 22 ft | 13 kts | 206° |
| 2026-04-15 14:42 | 25.92721 | 119.66257 | 22 ft | 15 kts | 208° |
| 2026-04-15 14:42 | 25.92621 | 119.66199 | 23 ft | 15 kts | 207° |
| 2026-04-15 14:42 | 25.92537 | 119.66142 | 22 ft | 11 kts | 233° |
| 2026-04-15 14:43 | 25.92531 | 119.66090 | 22 ft | 7 kts | 281° |
| 2026-04-15 14:43 | 25.92524 | 119.66031 | 22 ft | 9 kts | 230° |
| 2026-04-15 14:43 | 25.92467 | 119.65995 | 23 ft | 10 kts | 206° |
| 2026-04-15 14:43 | 25.92398 | 119.65956 | 22 ft | 12 kts | 207° |
| 2026-04-15 14:44 | 25.92321 | 119.65912 | 22 ft | 13 kts | 207° |
| 2026-04-15 14:44 | 25.92235 | 119.65863 | 24 ft | 15 kts | 207° |
| 2026-04-15 14:44 | 25.92140 | 119.65809 | 22 ft | 16 kts | 207° |
| 2026-04-15 14:44 | 25.92038 | 119.65751 | 22 ft | 18 kts | 207° |
| 2026-04-15 14:45 | 25.91984 | 119.65673 | 22 ft | 9 kts | 271° |
| 2026-04-15 14:45 | 25.92013 | 119.65609 | 22 ft | 11 kts | 311° |
| 2026-04-15 14:45 | 25.92057 | 119.65561 | 21 ft | 4 kts | 336° |
| 2026-04-15 14:45 | 25.92084 | 119.65557 | 21 ft | 4 kts | 2° |
| 2026-04-15 14:46 | 25.92113 | 119.65572 | 22 ft | 5 kts | 31° |
| 2026-04-15 14:46 | 25.92156 | 119.65597 | 21 ft | 16 kts | 26° |
| 2026-04-15 14:46 | 25.92486 | 119.65782 | 19 ft | 90 kts | 27° |
| 2026-04-15 14:46 | 25.93224 | 119.66195 | 20 ft | 148 kts | 26° |
| 2026-04-15 14:47 | 25.94254 | 119.66736 | 472 ft | 167 kts | 25° |
| 2026-04-15 14:47 | 25.95270 | 119.67313 | 979 ft | 163 kts | 27° |
| 2026-04-15 14:47 | 25.96276 | 119.67881 | 984 ft | 160 kts | 26° |
| 2026-04-15 14:47 | 25.97254 | 119.68438 | 991 ft | 157 kts | 27° |
| 2026-04-15 14:48 | 25.98218 | 119.68994 | 996 ft | 156 kts | 27° |
| 2026-04-15 14:48 | 25.99175 | 119.69548 | 1004 ft | 155 kts | 28° |
| 2026-04-15 14:48 | 26.00152 | 119.70113 | 1095 ft | 166 kts | 27° |
| 2026-04-15 14:48 | 26.01263 | 119.70739 | 1403 ft | 196 kts | 27° |
| 2026-04-15 14:49 | 26.02531 | 119.71452 | 1851 ft | 209 kts | 28° |
| 2026-04-15 14:49 | 26.03863 | 119.72202 | 2356 ft | 223 kts | 28° |
| 2026-04-15 14:49 | 26.05299 | 119.73013 | 2974 ft | 236 kts | 29° |
| 2026-04-15 14:49 | 26.06839 | 119.73731 | 3698 ft | 248 kts | 11° |
| 2026-04-15 14:50 | 26.08572 | 119.73573 | 4364 ft | 256 kts | 335° |
| 2026-04-15 14:50 | 26.09947 | 119.72391 | 5265 ft | 248 kts | 306° |
| 2026-04-15 14:50 | 26.11013 | 119.70879 | 6059 ft | 253 kts | 303° |
| 2026-04-15 14:50 | 26.12084 | 119.69293 | 6782 ft | 259 kts | 303° |
| 2026-04-15 14:51 | 26.13157 | 119.67705 | 7586 ft | 260 kts | 303° |
| 2026-04-15 14:51 | 26.14249 | 119.66099 | 8417 ft | 261 kts | 303° |
| 2026-04-15 14:51 | 26.15351 | 119.64488 | 9248 ft | 262 kts | 303° |
| 2026-04-15 14:51 | 26.16461 | 119.62870 | 10059 ft | 265 kts | 303° |
| 2026-04-15 14:52 | 26.17619 | 119.61183 | 10369 ft | 287 kts | 303° |
| 2026-04-15 14:52 | 26.18885 | 119.59340 | 10549 ft | 311 kts | 303° |
| 2026-04-15 14:52 | 26.20221 | 119.57401 | 10913 ft | 326 kts | 304° |
| 2026-04-15 14:52 | 26.21595 | 119.55337 | 11356 ft | 336 kts | 298° |
| 2026-04-15 14:53 | 26.22474 | 119.52931 | 11926 ft | 338 kts | 282° |
| 2026-04-15 14:53 | 26.23027 | 119.50377 | 12640 ft | 339 kts | 281° |
| 2026-04-15 14:53 | 26.23551 | 119.47806 | 13355 ft | 342 kts | 281° |
| 2026-04-15 14:53 | 26.24079 | 119.45199 | 14002 ft | 347 kts | 281° |
| 2026-04-15 14:54 | 26.24617 | 119.42569 | 14617 ft | 350 kts | 281° |
| 2026-04-15 14:54 | 26.25167 | 119.39915 | 15281 ft | 353 kts | 282° |
| 2026-04-15 14:54 | 26.25725 | 119.37242 | 15934 ft | 356 kts | 282° |
| 2026-04-15 14:54 | 26.26282 | 119.34584 | 16532 ft | 359 kts | 282° |
| 2026-04-15 14:55 | 26.26854 | 119.31863 | 17144 ft | 362 kts | 282° |
| 2026-04-15 14:55 | 26.27431 | 119.29116 | 17740 ft | 366 kts | 282° |
| 2026-04-15 14:55 | 26.28014 | 119.26342 | 18334 ft | 369 kts | 282° |
| 2026-04-15 14:55 | 26.28601 | 119.23546 | 18865 ft | 372 kts | 282° |
| 2026-04-15 14:56 | 26.29191 | 119.20737 | 19421 ft | 373 kts | 282° |
| 2026-04-15 14:56 | 26.29782 | 119.17914 | 19965 ft | 375 kts | 282° |
| 2026-04-15 14:56 | 26.30378 | 119.15069 | 20465 ft | 378 kts | 282° |
| 2026-04-15 14:56 | 26.30969 | 119.12243 | 20976 ft | 381 kts | 282° |
| 2026-04-15 14:57 | 26.31571 | 119.09365 | 21499 ft | 382 kts | 282° |
| 2026-04-15 14:57 | 26.32178 | 119.06469 | 21978 ft | 385 kts | 282° |
| 2026-04-15 14:57 | 26.32789 | 119.03548 | 22450 ft | 388 kts | 282° |
| 2026-04-15 14:57 | 26.33403 | 119.00611 | 22923 ft | 391 kts | 282° |
| 2026-04-15 14:58 | 26.34022 | 118.97648 | 23379 ft | 393 kts | 282° |
| 2026-04-15 14:58 | 26.34642 | 118.94675 | 23590 ft | 394 kts | 282° |
| 2026-04-15 14:58 | 26.35262 | 118.91697 | 23595 ft | 394 kts | 282° |
| 2026-04-15 14:58 | 26.35876 | 118.88750 | 23611 ft | 399 kts | 282° |
| 2026-04-15 14:59 | 26.36509 | 118.85700 | 23605 ft | 408 kts | 282° |
| 2026-04-15 14:59 | 26.37154 | 118.82591 | 23594 ft | 415 kts | 282° |
| 2026-04-15 14:59 | 26.37808 | 118.79437 | 23592 ft | 421 kts | 282° |
| 2026-04-15 14:59 | 26.38469 | 118.76243 | 23601 ft | 423 kts | 282° |
| 2026-04-15 15:00 | 26.39128 | 118.73062 | 23581 ft | 420 kts | 282° |
| 2026-04-15 15:00 | 26.39783 | 118.69892 | 23575 ft | 419 kts | 282° |
| 2026-04-15 15:00 | 26.40436 | 118.66733 | 23571 ft | 418 kts | 282° |
| 2026-04-15 15:00 | 26.41078 | 118.63620 | 23578 ft | 417 kts | 282° |
| 2026-04-15 15:01 | 26.41728 | 118.60464 | 23573 ft | 418 kts | 282° |
| 2026-04-15 15:01 | 26.42377 | 118.57303 | 23567 ft | 418 kts | 282° |
| 2026-04-15 15:01 | 26.43026 | 118.54143 | 23565 ft | 418 kts | 282° |
| 2026-04-15 15:01 | 26.43676 | 118.50975 | 23575 ft | 419 kts | 282° |
| 2026-04-15 15:02 | 26.44325 | 118.47804 | 23566 ft | 419 kts | 282° |
| 2026-04-15 15:02 | 26.44975 | 118.44631 | 23576 ft | 420 kts | 282° |
| 2026-04-15 15:02 | 26.45625 | 118.41451 | 23565 ft | 420 kts | 282° |
| 2026-04-15 15:02 | 26.46266 | 118.38311 | 23559 ft | 421 kts | 281° |
| 2026-04-15 15:03 | 26.46914 | 118.35134 | 23550 ft | 420 kts | 282° |
| 2026-04-15 15:03 | 26.47562 | 118.31949 | 23551 ft | 421 kts | 281° |
| 2026-04-15 15:03 | 26.48210 | 118.28767 | 23551 ft | 421 kts | 281° |
| 2026-04-15 15:03 | 26.48857 | 118.25580 | 23550 ft | 421 kts | 282° |
| 2026-04-15 15:04 | 26.49504 | 118.22387 | 23551 ft | 421 kts | 281° |
| 2026-04-15 15:04 | 26.50151 | 118.19200 | 23553 ft | 421 kts | 281° |
| 2026-04-15 15:04 | 26.50797 | 118.16012 | 23555 ft | 421 kts | 281° |
| 2026-04-15 15:04 | 26.51441 | 118.12826 | 23556 ft | 421 kts | 281° |
| 2026-04-15 15:05 | 26.52076 | 118.09681 | 23542 ft | 421 kts | 281° |
| 2026-04-15 15:05 | 26.52720 | 118.06492 | 23535 ft | 421 kts | 281° |
| 2026-04-15 15:05 | 26.53361 | 118.03309 | 23546 ft | 420 kts | 281° |
| 2026-04-15 15:05 | 26.54129 | 118.00156 | 23533 ft | 423 kts | 290° |
| 2026-04-15 15:06 | 26.57529 | 117.94792 | 23556 ft | 431 kts | 312° |
| 2026-04-15 15:06 | 26.59711 | 117.92484 | 23552 ft | 432 kts | 313° |
| 2026-04-15 15:06 | 26.61872 | 117.90212 | 23539 ft | 432 kts | 313° |
| 2026-04-15 15:07 | 26.64052 | 117.87898 | 23546 ft | 432 kts | 312° |
| 2026-04-15 15:07 | 26.66219 | 117.85571 | 23511 ft | 431 kts | 313° |
| 2026-04-15 15:07 | 26.68371 | 117.83244 | 23557 ft | 430 kts | 312° |
| 2026-04-15 15:07 | 26.70523 | 117.80904 | 23550 ft | 432 kts | 312° |
| 2026-04-15 15:08 | 26.72676 | 117.78561 | 23552 ft | 433 kts | 312° |
| 2026-04-15 15:08 | 26.74842 | 117.76205 | 23549 ft | 434 kts | 311° |
| 2026-04-15 15:08 | 26.77010 | 117.73848 | 23541 ft | 435 kts | 311° |
| 2026-04-15 15:08 | 26.79180 | 117.71488 | 23550 ft | 435 kts | 311° |
| 2026-04-15 15:09 | 26.81324 | 117.69157 | 23546 ft | 435 kts | 311° |
| 2026-04-15 15:09 | 26.83492 | 117.66797 | 23545 ft | 435 kts | 311° |
| 2026-04-15 15:09 | 26.85660 | 117.64438 | 23545 ft | 434 kts | 311° |
| 2026-04-15 15:09 | 26.87822 | 117.62081 | 23553 ft | 434 kts | 311° |
| 2026-04-15 15:10 | 26.89986 | 117.59721 | 23551 ft | 434 kts | 311° |
| 2026-04-15 15:10 | 26.92148 | 117.57361 | 23549 ft | 435 kts | 311° |
| 2026-04-15 15:10 | 26.94313 | 117.54995 | 23547 ft | 435 kts | 311° |
| 2026-04-15 15:10 | 26.96478 | 117.52631 | 23541 ft | 434 kts | 311° |
| 2026-04-15 15:11 | 26.98610 | 117.50301 | 23547 ft | 434 kts | 311° |
| 2026-04-15 15:11 | 27.00771 | 117.47939 | 23545 ft | 433 kts | 311° |
| 2026-04-15 15:11 | 27.02931 | 117.45587 | 23554 ft | 433 kts | 311° |
| 2026-04-15 15:11 | 27.05095 | 117.43234 | 23555 ft | 433 kts | 311° |
| 2026-04-15 15:12 | 27.07263 | 117.40879 | 23554 ft | 434 kts | 311° |
| 2026-04-15 15:12 | 27.09428 | 117.38525 | 23555 ft | 433 kts | 311° |
| 2026-04-15 15:12 | 27.11591 | 117.36169 | 23547 ft | 433 kts | 311° |
| 2026-04-15 15:12 | 27.13723 | 117.33847 | 23550 ft | 433 kts | 311° |
| 2026-04-15 15:13 | 27.15879 | 117.31495 | 23556 ft | 432 kts | 311° |
| 2026-04-15 15:13 | 27.18035 | 117.29141 | 23555 ft | 433 kts | 311° |
| 2026-04-15 15:13 | 27.20194 | 117.26783 | 23555 ft | 433 kts | 311° |
| 2026-04-15 15:13 | 27.22354 | 117.24421 | 23553 ft | 433 kts | 311° |
| 2026-04-15 15:14 | 27.24516 | 117.22058 | 23565 ft | 434 kts | 311° |
| 2026-04-15 15:14 | 27.26678 | 117.19691 | 23564 ft | 434 kts | 311° |
| 2026-04-15 15:14 | 27.28842 | 117.17323 | 23554 ft | 435 kts | 311° |
| 2026-04-15 15:14 | 27.31010 | 117.14955 | 23560 ft | 434 kts | 311° |
| 2026-04-15 15:15 | 27.33147 | 117.12626 | 23554 ft | 433 kts | 311° |
| 2026-04-15 15:15 | 27.35310 | 117.10270 | 23550 ft | 433 kts | 311° |
| 2026-04-15 15:15 | 27.37471 | 117.07913 | 23569 ft | 433 kts | 311° |
| 2026-04-15 15:15 | 27.39637 | 117.05548 | 23562 ft | 434 kts | 311° |
| 2026-04-15 15:16 | 27.41804 | 117.03181 | 23559 ft | 434 kts | 311° |
| 2026-04-15 15:16 | 27.43968 | 117.00816 | 23538 ft | 433 kts | 311° |
| 2026-04-15 15:16 | 27.46128 | 116.98453 | 23549 ft | 432 kts | 311° |
| 2026-04-15 15:16 | 27.48281 | 116.96096 | 23552 ft | 432 kts | 310° |
| 2026-04-15 15:17 | 27.50411 | 116.93763 | 23561 ft | 433 kts | 310° |
| 2026-04-15 15:17 | 27.52572 | 116.91397 | 23562 ft | 434 kts | 311° |
| 2026-04-15 15:17 | 27.54744 | 116.89031 | 23551 ft | 435 kts | 311° |
| 2026-04-15 15:17 | 27.56926 | 116.86663 | 23554 ft | 436 kts | 311° |
| 2026-04-15 15:18 | 27.59111 | 116.84293 | 23543 ft | 436 kts | 311° |
| 2026-04-15 15:18 | 27.61298 | 116.81920 | 23553 ft | 436 kts | 311° |
| 2026-04-15 15:18 | 27.63481 | 116.79549 | 23548 ft | 436 kts | 311° |
| 2026-04-15 15:18 | 27.65660 | 116.77179 | 23560 ft | 436 kts | 311° |
| 2026-04-15 15:19 | 27.67811 | 116.74837 | 23551 ft | 436 kts | 311° |
| 2026-04-15 15:19 | 27.69992 | 116.72460 | 23548 ft | 435 kts | 311° |
| 2026-04-15 15:19 | 27.72168 | 116.70087 | 23547 ft | 435 kts | 310° |
| 2026-04-15 15:19 | 27.74344 | 116.67713 | 23559 ft | 435 kts | 310° |
| 2026-04-15 15:20 | 27.76515 | 116.65342 | 23550 ft | 434 kts | 310° |
| 2026-04-15 15:20 | 27.78680 | 116.62977 | 23548 ft | 434 kts | 310° |
| 2026-04-15 15:20 | 27.80857 | 116.60597 | 23549 ft | 434 kts | 310° |
| 2026-04-15 15:20 | 27.83026 | 116.58225 | 23551 ft | 434 kts | 310° |
| 2026-04-15 15:21 | 27.85192 | 116.55854 | 23551 ft | 434 kts | 310° |
| 2026-04-15 15:21 | 27.87328 | 116.53515 | 23551 ft | 434 kts | 310° |
| 2026-04-15 15:21 | 27.89494 | 116.51142 | 23550 ft | 434 kts | 310° |
| 2026-04-15 15:21 | 27.91661 | 116.48766 | 23544 ft | 434 kts | 310° |
| 2026-04-15 15:22 | 27.93824 | 116.46393 | 23546 ft | 434 kts | 310° |
| 2026-04-15 15:22 | 27.95992 | 116.44014 | 23547 ft | 434 kts | 310° |
| 2026-04-15 15:22 | 27.98158 | 116.41634 | 23545 ft | 434 kts | 310° |
| 2026-04-15 15:22 | 28.00322 | 116.39257 | 23546 ft | 434 kts | 310° |
| 2026-04-15 15:23 | 28.02487 | 116.36877 | 23546 ft | 434 kts | 310° |
| 2026-04-15 15:23 | 28.04619 | 116.34531 | 23550 ft | 434 kts | 310° |
| 2026-04-15 15:23 | 28.06782 | 116.32150 | 23550 ft | 433 kts | 310° |
| 2026-04-15 15:23 | 28.08942 | 116.29770 | 23545 ft | 433 kts | 310° |
| 2026-04-15 15:24 | 28.11101 | 116.27389 | 23541 ft | 433 kts | 310° |
| 2026-04-15 15:24 | 28.13262 | 116.25007 | 23548 ft | 433 kts | 310° |
| 2026-04-15 15:24 | 28.15418 | 116.22627 | 23546 ft | 433 kts | 310° |
| 2026-04-15 15:24 | 28.17577 | 116.20243 | 23543 ft | 433 kts | 310° |
| 2026-04-15 15:25 | 28.19731 | 116.17863 | 23548 ft | 433 kts | 310° |
| 2026-04-15 15:25 | 28.21859 | 116.15510 | 23548 ft | 433 kts | 310° |
| 2026-04-15 15:25 | 28.24012 | 116.13126 | 23546 ft | 433 kts | 310° |
| 2026-04-15 15:25 | 28.26163 | 116.10742 | 23543 ft | 433 kts | 310° |
| 2026-04-15 15:26 | 28.28317 | 116.08355 | 23543 ft | 433 kts | 310° |
| 2026-04-15 15:26 | 28.30468 | 116.05969 | 23543 ft | 433 kts | 310° |
| 2026-04-15 15:26 | 28.32619 | 116.03583 | 23545 ft | 433 kts | 310° |
| 2026-04-15 15:26 | 28.34638 | 116.01075 | 23542 ft | 427 kts | 302° |
| 2026-04-15 15:27 | 28.36305 | 115.98316 | 23549 ft | 422 kts | 296° |
| 2026-04-15 15:27 | 28.37607 | 115.95353 | 23542 ft | 417 kts | 288° |
| 2026-04-15 15:27 | 28.38663 | 115.92292 | 23550 ft | 417 kts | 287° |
| 2026-04-15 15:27 | 28.39696 | 115.89261 | 23544 ft | 417 kts | 287° |
| 2026-04-15 15:28 | 28.40746 | 115.86196 | 23545 ft | 417 kts | 287° |
| 2026-04-15 15:28 | 28.41804 | 115.83134 | 23545 ft | 417 kts | 288° |
| 2026-04-15 15:28 | 28.42870 | 115.80071 | 23546 ft | 417 kts | 288° |
| 2026-04-15 15:28 | 28.43939 | 115.77009 | 23545 ft | 417 kts | 288° |
| 2026-04-15 15:29 | 28.45010 | 115.73945 | 23540 ft | 417 kts | 288° |
| 2026-04-15 15:29 | 28.46078 | 115.70886 | 23540 ft | 417 kts | 288° |
| 2026-04-15 15:29 | 28.47098 | 115.67852 | 23541 ft | 415 kts | 284° |
| 2026-04-15 15:29 | 28.47735 | 115.64674 | 23545 ft | 411 kts | 276° |
| 2026-04-15 15:30 | 28.48011 | 115.61448 | 23547 ft | 409 kts | 270° |
| 2026-04-15 15:30 | 28.47950 | 115.58219 | 23540 ft | 408 kts | 262° |
| 2026-04-15 15:30 | 28.47525 | 115.55034 | 23549 ft | 407 kts | 260° |
| 2026-04-15 15:30 | 28.47058 | 115.51863 | 23543 ft | 408 kts | 259° |
| 2026-04-15 15:31 | 28.46592 | 115.48683 | 23545 ft | 408 kts | 260° |
| 2026-04-15 15:31 | 28.46140 | 115.45503 | 23545 ft | 408 kts | 260° |
| 2026-04-15 15:31 | 28.45695 | 115.42320 | 23548 ft | 408 kts | 260° |
| 2026-04-15 15:31 | 28.45258 | 115.39175 | 23551 ft | 408 kts | 260° |
| 2026-04-15 15:32 | 28.44814 | 115.35994 | 23551 ft | 408 kts | 260° |
| 2026-04-15 15:32 | 28.44366 | 115.32808 | 23550 ft | 408 kts | 260° |
| 2026-04-15 15:32 | 28.43917 | 115.29623 | 23551 ft | 408 kts | 260° |
| 2026-04-15 15:32 | 28.43467 | 115.26436 | 23559 ft | 409 kts | 260° |
| 2026-04-15 15:33 | 28.43017 | 115.23250 | 23559 ft | 409 kts | 260° |
| 2026-04-15 15:33 | 28.42566 | 115.20062 | 23555 ft | 409 kts | 260° |
| 2026-04-15 15:33 | 28.42113 | 115.16873 | 23557 ft | 409 kts | 260° |
| 2026-04-15 15:33 | 28.41667 | 115.13726 | 23556 ft | 409 kts | 260° |
| 2026-04-15 15:34 | 28.41213 | 115.10536 | 23554 ft | 409 kts | 260° |
| 2026-04-15 15:34 | 28.40759 | 115.07347 | 23560 ft | 409 kts | 260° |
| 2026-04-15 15:34 | 28.40304 | 115.04158 | 23558 ft | 409 kts | 260° |
| 2026-04-15 15:34 | 28.39848 | 115.00971 | 23558 ft | 409 kts | 260° |
| 2026-04-15 15:35 | 28.39391 | 114.97780 | 23558 ft | 409 kts | 260° |
| 2026-04-15 15:35 | 28.38936 | 114.94604 | 23536 ft | 402 kts | 260° |
| 2026-04-15 15:35 | 28.38495 | 114.91527 | 23197 ft | 389 kts | 260° |
| 2026-04-15 15:35 | 28.38072 | 114.88583 | 22893 ft | 377 kts | 260° |
| 2026-04-15 15:36 | 28.37655 | 114.85689 | 22576 ft | 366 kts | 260° |
| 2026-04-15 15:36 | 28.37248 | 114.82869 | 22266 ft | 357 kts | 260° |
| 2026-04-15 15:36 | 28.36849 | 114.80107 | 21969 ft | 354 kts | 260° |
| 2026-04-15 15:36 | 28.36447 | 114.77338 | 21672 ft | 357 kts | 259° |
| 2026-04-15 15:37 | 28.36042 | 114.74546 | 21380 ft | 359 kts | 259° |
| 2026-04-15 15:37 | 28.35637 | 114.71758 | 21090 ft | 356 kts | 259° |
| 2026-04-15 15:37 | 28.35236 | 114.69000 | 20798 ft | 353 kts | 259° |
| 2026-04-15 15:37 | 28.34842 | 114.66292 | 20515 ft | 351 kts | 259° |
| 2026-04-15 15:38 | 28.34444 | 114.63565 | 20232 ft | 349 kts | 259° |
| 2026-04-15 15:38 | 28.34048 | 114.60850 | 19956 ft | 348 kts | 259° |
| 2026-04-15 15:38 | 28.33653 | 114.58149 | 19672 ft | 347 kts | 259° |
| 2026-04-15 15:38 | 28.33258 | 114.55454 | 19397 ft | 345 kts | 259° |
| 2026-04-15 15:39 | 28.32864 | 114.52767 | 19122 ft | 345 kts | 259° |
| 2026-04-15 15:39 | 28.32471 | 114.50087 | 18857 ft | 344 kts | 259° |
| 2026-04-15 15:39 | 28.32078 | 114.47412 | 18589 ft | 343 kts | 259° |
| 2026-04-15 15:39 | 28.31691 | 114.44780 | 18320 ft | 342 kts | 259° |
| 2026-04-15 15:40 | 28.31299 | 114.42125 | 18012 ft | 341 kts | 259° |
| 2026-04-15 15:40 | 28.30909 | 114.39483 | 17705 ft | 338 kts | 259° |
| 2026-04-15 15:40 | 28.30566 | 114.36844 | 17404 ft | 338 kts | 264° |
| 2026-04-15 15:40 | 28.30554 | 114.34172 | 17107 ft | 339 kts | 269° |
| 2026-04-15 15:41 | 28.30661 | 114.31503 | 16795 ft | 338 kts | 270° |
| 2026-04-15 15:41 | 28.30785 | 114.28847 | 16507 ft | 337 kts | 270° |
| 2026-04-15 15:41 | 28.30899 | 114.26200 | 16204 ft | 335 kts | 270° |
| 2026-04-15 15:41 | 28.31000 | 114.23568 | 15943 ft | 333 kts | 270° |
| 2026-04-15 15:42 | 28.31090 | 114.20944 | 15688 ft | 332 kts | 270° |
| 2026-04-15 15:42 | 28.31174 | 114.18366 | 15423 ft | 331 kts | 270° |
| 2026-04-15 15:42 | 28.31255 | 114.15753 | 15160 ft | 331 kts | 270° |
| 2026-04-15 15:42 | 28.31334 | 114.13149 | 14903 ft | 330 kts | 270° |
| 2026-04-15 15:43 | 28.31412 | 114.10546 | 14655 ft | 330 kts | 269° |
| 2026-04-15 15:43 | 28.31483 | 114.07947 | 14398 ft | 330 kts | 269° |
| 2026-04-15 15:43 | 28.31402 | 114.05359 | 14128 ft | 327 kts | 258° |
| 2026-04-15 15:43 | 28.30898 | 114.02851 | 13891 ft | 326 kts | 255° |
| 2026-04-15 15:44 | 28.30344 | 114.00358 | 13628 ft | 326 kts | 255° |
| 2026-04-15 15:44 | 28.29796 | 113.97903 | 13345 ft | 325 kts | 255° |
| 2026-04-15 15:44 | 28.29248 | 113.95421 | 13062 ft | 324 kts | 255° |
| 2026-04-15 15:44 | 28.28708 | 113.92944 | 12771 ft | 323 kts | 256° |
| 2026-04-15 15:45 | 28.28177 | 113.90477 | 12509 ft | 322 kts | 256° |
| 2026-04-15 15:45 | 28.27648 | 113.88009 | 12231 ft | 321 kts | 256° |
| 2026-04-15 15:45 | 28.27123 | 113.85557 | 11962 ft | 319 kts | 256° |
| 2026-04-15 15:45 | 28.26605 | 113.83132 | 11687 ft | 312 kts | 256° |
| 2026-04-15 15:46 | 28.26100 | 113.80773 | 11415 ft | 304 kts | 256° |
| 2026-04-15 15:46 | 28.25613 | 113.78500 | 11151 ft | 297 kts | 256° |
| 2026-04-15 15:46 | 28.25126 | 113.76251 | 10883 ft | 291 kts | 254° |
| 2026-04-15 15:46 | 28.24245 | 113.74227 | 10612 ft | 287 kts | 233° |
| 2026-04-15 15:47 | 28.22779 | 113.72716 | 10364 ft | 285 kts | 217° |
| 2026-04-15 15:47 | 28.21000 | 113.71749 | 10092 ft | 283 kts | 199° |
| 2026-04-15 15:47 | 28.19073 | 113.71446 | 9811 ft | 277 kts | 189° |
| 2026-04-15 15:47 | 28.17175 | 113.71319 | 9459 ft | 269 kts | 188° |
| 2026-04-15 15:48 | 28.15304 | 113.71201 | 9146 ft | 270 kts | 188° |
| 2026-04-15 15:48 | 28.13450 | 113.71075 | 8778 ft | 271 kts | 188° |
| 2026-04-15 15:48 | 28.11564 | 113.70932 | 8407 ft | 272 kts | 189° |
| 2026-04-15 15:48 | 28.09671 | 113.70765 | 8045 ft | 273 kts | 189° |
| 2026-04-15 15:49 | 28.07776 | 113.70593 | 7682 ft | 274 kts | 189° |
| 2026-04-15 15:49 | 28.05874 | 113.70421 | 7325 ft | 274 kts | 189° |
| 2026-04-15 15:49 | 28.03995 | 113.70119 | 6961 ft | 270 kts | 203° |
| 2026-04-15 15:49 | 28.02466 | 113.69043 | 6909 ft | 253 kts | 227° |
| 2026-04-15 15:50 | 28.01459 | 113.67466 | 6852 ft | 247 kts | 244° |
| 2026-04-15 15:50 | 28.00977 | 113.65645 | 6621 ft | 245 kts | 261° |
| 2026-04-15 15:50 | 28.00843 | 113.63735 | 6424 ft | 242 kts | 265° |
| 2026-04-15 15:50 | 28.00773 | 113.61843 | 6190 ft | 239 kts | 265° |
| 2026-04-15 15:51 | 28.00705 | 113.59973 | 5957 ft | 236 kts | 266° |
| 2026-04-15 15:51 | 28.00629 | 113.58121 | 5742 ft | 235 kts | 265° |
| 2026-04-15 15:51 | 28.00547 | 113.56267 | 5524 ft | 237 kts | 265° |
| 2026-04-15 15:51 | 28.00462 | 113.54427 | 5309 ft | 238 kts | 265° |
| 2026-04-15 15:52 | 28.00375 | 113.52559 | 5100 ft | 238 kts | 265° |
| 2026-04-15 15:52 | 28.00125 | 113.50718 | 4874 ft | 235 kts | 251° |
| 2026-04-15 15:52 | 27.99545 | 113.49006 | 4705 ft | 232 kts | 246° |
| 2026-04-15 15:52 | 27.98914 | 113.47331 | 4490 ft | 230 kts | 246° |
| 2026-04-15 15:53 | 27.98293 | 113.45676 | 4279 ft | 227 kts | 246° |
| 2026-04-15 15:53 | 27.97687 | 113.44029 | 4080 ft | 226 kts | 246° |
| 2026-04-15 15:53 | 27.97087 | 113.42374 | 3951 ft | 228 kts | 247° |
| 2026-04-15 15:53 | 27.96496 | 113.40735 | 3898 ft | 227 kts | 247° |
| 2026-04-15 15:54 | 27.95912 | 113.39106 | 3883 ft | 219 kts | 247° |
| 2026-04-15 15:54 | 27.95352 | 113.37544 | 3875 ft | 211 kts | 247° |
| 2026-04-15 15:54 | 27.94875 | 113.35985 | 3877 ft | 210 kts | 260° |
| 2026-04-15 15:54 | 27.94801 | 113.34339 | 3893 ft | 210 kts | 266° |
| 2026-04-15 15:55 | 27.94764 | 113.33232 | 3754 ft | 217 kts | 265° |
| 2026-04-15 15:55 | 27.94691 | 113.31516 | 3526 ft | 218 kts | 265° |
| 2026-04-15 15:55 | 27.94613 | 113.29812 | 3303 ft | 217 kts | 265° |
| 2026-04-15 15:55 | 27.94533 | 113.28116 | 3079 ft | 216 kts | 266° |
| 2026-04-15 15:56 | 27.94506 | 113.25883 | 2757 ft | 215 kts | 282° |
| 2026-04-15 15:56 | 27.95229 | 113.24438 | 2529 ft | 213 kts | 319° |
| 2026-04-15 15:56 | 27.96062 | 113.23890 | 2420 ft | 207 kts | 343° |
| 2026-04-15 15:56 | 27.97475 | 113.23630 | 2348 ft | 206 kts | 357° |
| 2026-04-15 15:57 | 27.98884 | 113.23547 | 2283 ft | 197 kts | 358° |
| 2026-04-15 15:57 | 28.00205 | 113.23479 | 2265 ft | 185 kts | 358° |
| 2026-04-15 15:57 | 28.01481 | 113.23412 | 2288 ft | 184 kts | 358° |
| 2026-04-15 15:57 | 28.02776 | 113.23343 | 2302 ft | 188 kts | 358° |
| 2026-04-15 15:58 | 28.04102 | 113.23265 | 2304 ft | 192 kts | 358° |
| 2026-04-15 15:58 | 28.05431 | 113.23184 | 2290 ft | 191 kts | 358° |
| 2026-04-15 15:58 | 28.06748 | 113.23109 | 2271 ft | 187 kts | 358° |
| 2026-04-15 15:58 | 28.08028 | 113.23034 | 2062 ft | 180 kts | 358° |
| 2026-04-15 15:59 | 28.09234 | 113.22960 | 1826 ft | 173 kts | 358° |